sensor_id;sensor_type;location;lat;lon;timestamp;P1;durP1;ratioP1;P2;durP2;ratioP2
434;SDS011;204;48.942;9.256;2023-05-07T00:00:36;6.30;;;4.73;;
434;SDS011;204;48.942;9.256;2023-05-07T00:03:02;5.60;;;5.30;;
434;SDS011;204;48.942;9.256;2023-05-07T00:05:28;7.13;;;4.90;;
434;SDS011;204;48.942;9.256;2023-05-07T00:07:53;4.57;;;4.30;;
434;SDS011;204;48.942;9.256;2023-05-07T00:10:19;7.03;;;5.27;;
434;SDS011;204;48.942;9.256;2023-05-07T00:12:44;7.17;;;5.57;;
434;SDS011;204;48.942;9.256;2023-05-07T00:15:10;5.90;;;5.60;;
434;SDS011;204;48.942;9.256;2023-05-07T00:17:36;8.03;;;5.40;;
434;SDS011;204;48.942;9.256;2023-05-07T00:20:02;6.20;;;5.90;;
434;SDS011;204;48.942;9.256;2023-05-07T00:22:29;5.00;;;4.47;;
434;SDS011;204;48.942;9.256;2023-05-07T00:24:55;5.72;;;5.43;;
434;SDS011;204;48.942;9.256;2023-05-07T00:27:21;5.83;;;4.80;;
434;SDS011;204;48.942;9.256;2023-05-07T00:29:47;6.90;;;5.00;;
434;SDS011;204;48.942;9.256;2023-05-07T00:32:12;6.10;;;4.67;;
434;SDS011;204;48.942;9.256;2023-05-07T00:34:38;5.37;;;5.07;;
434;SDS011;204;48.942;9.256;2023-05-07T00:37:04;5.82;;;5.53;;
434;SDS011;204;48.942;9.256;2023-05-07T00:39:32;5.22;;;4.95;;
434;SDS011;204;48.942;9.256;2023-05-07T00:41:58;7.70;;;5.07;;
434;SDS011;204;48.942;9.256;2023-05-07T00:44:25;7.38;;;5.90;;
434;SDS011;204;48.942;9.256;2023-05-07T00:46:51;5.15;;;4.85;;
434;SDS011;204;48.942;9.256;2023-05-07T00:49:18;5.50;;;5.22;;
434;SDS011;204;48.942;9.256;2023-05-07T00:51:44;5.50;;;5.20;;
434;SDS011;204;48.942;9.256;2023-05-07T00:54:10;5.50;;;5.20;;
434;SDS011;204;48.942;9.256;2023-05-07T00:56:36;5.27;;;4.60;;
434;SDS011;204;48.942;9.256;2023-05-07T00:59:04;4.60;;;4.30;;
434;SDS011;204;48.942;9.256;2023-05-07T01:01:30;5.32;;;4.40;;
434;SDS011;204;48.942;9.256;2023-05-07T01:03:56;12.18;;;5.05;;
434;SDS011;204;48.942;9.256;2023-05-07T01:06:22;5.00;;;4.70;;
434;SDS011;204;48.942;9.256;2023-05-07T01:08:50;4.70;;;4.00;;
434;SDS011;204;48.942;9.256;2023-05-07T01:11:17;4.30;;;4.00;;
434;SDS011;204;48.942;9.256;2023-05-07T01:13:45;5.70;;;5.07;;
434;SDS011;204;48.942;9.256;2023-05-07T01:16:11;5.45;;;5.15;;
434;SDS011;204;48.942;9.256;2023-05-07T01:18:37;6.50;;;5.07;;
434;SDS011;204;48.942;9.256;2023-05-07T01:21:04;6.67;;;5.40;;
434;SDS011;204;48.942;9.256;2023-05-07T01:23:30;4.72;;;4.50;;
434;SDS011;204;48.942;9.256;2023-05-07T01:25:56;5.80;;;5.50;;
434;SDS011;204;48.942;9.256;2023-05-07T01:28:21;5.33;;;5.03;;
434;SDS011;204;48.942;9.256;2023-05-07T01:30:49;7.77;;;4.90;;
434;SDS011;204;48.942;9.256;2023-05-07T01:33:21;7.85;;;4.47;;
434;SDS011;204;48.942;9.256;2023-05-07T01:35:48;5.38;;;5.00;;
434;SDS011;204;48.942;9.256;2023-05-07T01:38:16;5.07;;;4.78;;
434;SDS011;204;48.942;9.256;2023-05-07T01:40:43;5.95;;;4.78;;
434;SDS011;204;48.942;9.256;2023-05-07T01:43:09;4.67;;;4.33;;
434;SDS011;204;48.942;9.256;2023-05-07T01:45:35;4.88;;;4.47;;
434;SDS011;204;48.942;9.256;2023-05-07T01:48:01;5.63;;;5.15;;
434;SDS011;204;48.942;9.256;2023-05-07T01:50:28;4.85;;;4.55;;
434;SDS011;204;48.942;9.256;2023-05-07T01:52:54;5.07;;;4.78;;
434;SDS011;204;48.942;9.256;2023-05-07T01:55:20;5.97;;;5.67;;
434;SDS011;204;48.942;9.256;2023-05-07T01:57:46;9.03;;;5.80;;
434;SDS011;204;48.942;9.256;2023-05-07T02:00:12;5.70;;;5.40;;
434;SDS011;204;48.942;9.256;2023-05-07T02:02:37;5.97;;;5.47;;
434;SDS011;204;48.942;9.256;2023-05-07T02:05:03;6.00;;;5.17;;
434;SDS011;204;48.942;9.256;2023-05-07T02:07:29;6.47;;;5.05;;
434;SDS011;204;48.942;9.256;2023-05-07T02:09:55;7.40;;;5.10;;
434;SDS011;204;48.942;9.256;2023-05-07T02:12:21;14.30;;;4.90;;
434;SDS011;204;48.942;9.256;2023-05-07T02:14:47;6.53;;;5.88;;
434;SDS011;204;48.942;9.256;2023-05-07T02:17:13;5.50;;;5.20;;
434;SDS011;204;48.942;9.256;2023-05-07T02:19:38;5.50;;;5.20;;
434;SDS011;204;48.942;9.256;2023-05-07T02:22:04;5.23;;;4.90;;
434;SDS011;204;48.942;9.256;2023-05-07T02:24:30;5.43;;;5.13;;
434;SDS011;204;48.942;9.256;2023-05-07T02:26:55;5.37;;;5.07;;
434;SDS011;204;48.942;9.256;2023-05-07T02:29:21;6.60;;;5.00;;
434;SDS011;204;48.942;9.256;2023-05-07T02:31:47;5.03;;;4.73;;
434;SDS011;204;48.942;9.256;2023-05-07T02:34:15;9.93;;;4.97;;
434;SDS011;204;48.942;9.256;2023-05-07T02:36:41;6.40;;;6.00;;
434;SDS011;204;48.942;9.256;2023-05-07T02:39:07;5.37;;;5.07;;
434;SDS011;204;48.942;9.256;2023-05-07T02:41:33;8.67;;;6.77;;
434;SDS011;204;48.942;9.256;2023-05-07T02:43:58;6.73;;;6.33;;
434;SDS011;204;48.942;9.256;2023-05-07T02:46:24;7.53;;;6.30;;
434;SDS011;204;48.942;9.256;2023-05-07T02:48:49;6.87;;;6.47;;
434;SDS011;204;48.942;9.256;2023-05-07T02:51:16;5.33;;;5.03;;
434;SDS011;204;48.942;9.256;2023-05-07T02:53:45;5.70;;;5.40;;
434;SDS011;204;48.942;9.256;2023-05-07T02:56:11;5.60;;;5.30;;
434;SDS011;204;48.942;9.256;2023-05-07T02:58:36;6.13;;;5.83;;
434;SDS011;204;48.942;9.256;2023-05-07T03:01:04;8.45;;;5.82;;
434;SDS011;204;48.942;9.256;2023-05-07T03:03:30;6.10;;;5.78;;
434;SDS011;204;48.942;9.256;2023-05-07T03:05:55;6.03;;;5.03;;
434;SDS011;204;48.942;9.256;2023-05-07T03:08:21;5.40;;;5.10;;
434;SDS011;204;48.942;9.256;2023-05-07T03:10:47;5.83;;;5.53;;
434;SDS011;204;48.942;9.256;2023-05-07T03:13:13;6.97;;;5.50;;
434;SDS011;204;48.942;9.256;2023-05-07T03:15:38;6.00;;;5.70;;
434;SDS011;204;48.942;9.256;2023-05-07T03:18:04;7.40;;;5.00;;
434;SDS011;204;48.942;9.256;2023-05-07T03:20:30;5.30;;;5.00;;
434;SDS011;204;48.942;9.256;2023-05-07T03:22:55;6.60;;;5.20;;
434;SDS011;204;48.942;9.256;2023-05-07T03:25:21;5.20;;;4.90;;
434;SDS011;204;48.942;9.256;2023-05-07T03:27:47;5.40;;;5.03;;
434;SDS011;204;48.942;9.256;2023-05-07T03:30:13;4.90;;;4.60;;
434;SDS011;204;48.942;9.256;2023-05-07T03:32:39;6.90;;;5.57;;
434;SDS011;204;48.942;9.256;2023-05-07T03:35:05;5.27;;;4.60;;
434;SDS011;204;48.942;9.256;2023-05-07T03:37:31;5.57;;;5.28;;
434;SDS011;204;48.942;9.256;2023-05-07T03:39:56;5.33;;;5.03;;
434;SDS011;204;48.942;9.256;2023-05-07T03:42:23;5.70;;;5.07;;
434;SDS011;204;48.942;9.256;2023-05-07T03:44:49;4.90;;;4.68;;
434;SDS011;204;48.942;9.256;2023-05-07T03:47:15;4.97;;;4.57;;
434;SDS011;204;48.942;9.256;2023-05-07T03:49:40;6.40;;;6.00;;
434;SDS011;204;48.942;9.256;2023-05-07T03:52:06;6.57;;;4.30;;
434;SDS011;204;48.942;9.256;2023-05-07T03:54:31;5.13;;;4.83;;
434;SDS011;204;48.942;9.256;2023-05-07T03:56:57;4.73;;;4.47;;
434;SDS011;204;48.942;9.256;2023-05-07T03:59:23;4.90;;;4.60;;
434;SDS011;204;48.942;9.256;2023-05-07T04:01:48;6.53;;;5.50;;
434;SDS011;204;48.942;9.256;2023-05-07T04:04:14;5.17;;;4.80;;
434;SDS011;204;48.942;9.256;2023-05-07T04:06:40;6.10;;;5.43;;
434;SDS011;204;48.942;9.256;2023-05-07T04:09:06;5.30;;;5.00;;
434;SDS011;204;48.942;9.256;2023-05-07T04:11:32;5.20;;;4.90;;
434;SDS011;204;48.942;9.256;2023-05-07T04:13:57;5.40;;;5.10;;
434;SDS011;204;48.942;9.256;2023-05-07T04:16:23;4.07;;;3.87;;
434;SDS011;204;48.942;9.256;2023-05-07T04:18:48;4.70;;;4.40;;
434;SDS011;204;48.942;9.256;2023-05-07T04:21:17;5.70;;;4.70;;
434;SDS011;204;48.942;9.256;2023-05-07T04:23:46;5.45;;;5.15;;
434;SDS011;204;48.942;9.256;2023-05-07T04:26:12;10.40;;;4.80;;
434;SDS011;204;48.942;9.256;2023-05-07T04:28:38;5.53;;;5.23;;
434;SDS011;204;48.942;9.256;2023-05-07T04:31:04;5.20;;;4.55;;
434;SDS011;204;48.942;9.256;2023-05-07T04:33:30;4.93;;;4.50;;
434;SDS011;204;48.942;9.256;2023-05-07T04:35:56;7.07;;;4.80;;
434;SDS011;204;48.942;9.256;2023-05-07T04:38:22;5.50;;;5.20;;
434;SDS011;204;48.942;9.256;2023-05-07T04:40:48;5.60;;;5.10;;
434;SDS011;204;48.942;9.256;2023-05-07T04:43:14;5.60;;;5.30;;
434;SDS011;204;48.942;9.256;2023-05-07T04:45:41;5.97;;;5.22;;
434;SDS011;204;48.942;9.256;2023-05-07T04:48:06;7.30;;;5.00;;
434;SDS011;204;48.942;9.256;2023-05-07T04:50:33;5.22;;;4.93;;
434;SDS011;204;48.942;9.256;2023-05-07T04:52:59;5.53;;;5.33;;
434;SDS011;204;48.942;9.256;2023-05-07T04:55:24;7.63;;;5.80;;
434;SDS011;204;48.942;9.256;2023-05-07T04:57:51;10.13;;;7.30;;
434;SDS011;204;48.942;9.256;2023-05-07T05:00:17;8.10;;;6.60;;
434;SDS011;204;48.942;9.256;2023-05-07T05:02:44;6.60;;;6.20;;
434;SDS011;204;48.942;9.256;2023-05-07T05:05:10;6.95;;;6.55;;
434;SDS011;204;48.942;9.256;2023-05-07T05:07:36;7.93;;;7.53;;
434;SDS011;204;48.942;9.256;2023-05-07T05:10:02;9.63;;;9.13;;
434;SDS011;204;48.942;9.256;2023-05-07T05:12:30;9.10;;;7.93;;
434;SDS011;204;48.942;9.256;2023-05-07T05:14:56;7.07;;;5.90;;
434;SDS011;204;48.942;9.256;2023-05-07T05:17:22;7.60;;;7.20;;
434;SDS011;204;48.942;9.256;2023-05-07T05:19:47;5.57;;;5.27;;
434;SDS011;204;48.942;9.256;2023-05-07T05:22:13;5.10;;;4.80;;
434;SDS011;204;48.942;9.256;2023-05-07T05:24:38;6.30;;;4.20;;
434;SDS011;204;48.942;9.256;2023-05-07T05:27:05;5.47;;;5.13;;
434;SDS011;204;48.942;9.256;2023-05-07T05:29:30;5.30;;;4.85;;
434;SDS011;204;48.942;9.256;2023-05-07T05:31:56;4.37;;;4.07;;
434;SDS011;204;48.942;9.256;2023-05-07T05:34:22;4.70;;;4.40;;
434;SDS011;204;48.942;9.256;2023-05-07T05:36:48;7.43;;;5.47;;
434;SDS011;204;48.942;9.256;2023-05-07T05:39:13;5.07;;;4.50;;
434;SDS011;204;48.942;9.256;2023-05-07T05:41:39;5.13;;;4.83;;
434;SDS011;204;48.942;9.256;2023-05-07T05:44:05;4.87;;;4.53;;
434;SDS011;204;48.942;9.256;2023-05-07T05:46:31;5.40;;;5.00;;
434;SDS011;204;48.942;9.256;2023-05-07T05:48:57;4.07;;;3.83;;
434;SDS011;204;48.942;9.256;2023-05-07T05:51:22;5.53;;;5.07;;
434;SDS011;204;48.942;9.256;2023-05-07T05:53:48;4.90;;;4.60;;
434;SDS011;204;48.942;9.256;2023-05-07T05:56:13;4.67;;;4.37;;
434;SDS011;204;48.942;9.256;2023-05-07T05:58:40;4.30;;;4.00;;
434;SDS011;204;48.942;9.256;2023-05-07T06:01:06;6.50;;;4.60;;
434;SDS011;204;48.942;9.256;2023-05-07T06:03:31;3.83;;;3.63;;
434;SDS011;204;48.942;9.256;2023-05-07T06:05:57;4.57;;;4.27;;
434;SDS011;204;48.942;9.256;2023-05-07T06:08:23;3.83;;;3.63;;
434;SDS011;204;48.942;9.256;2023-05-07T06:10:48;4.23;;;3.60;;
434;SDS011;204;48.942;9.256;2023-05-07T06:13:14;3.90;;;3.70;;
434;SDS011;204;48.942;9.256;2023-05-07T06:15:40;3.93;;;3.73;;
434;SDS011;204;48.942;9.256;2023-05-07T06:18:06;4.23;;;3.93;;
434;SDS011;204;48.942;9.256;2023-05-07T06:20:31;4.30;;;4.00;;
434;SDS011;204;48.942;9.256;2023-05-07T06:22:57;4.07;;;3.83;;
434;SDS011;204;48.942;9.256;2023-05-07T06:25:22;4.30;;;4.00;;
434;SDS011;204;48.942;9.256;2023-05-07T06:27:48;4.00;;;3.80;;
434;SDS011;204;48.942;9.256;2023-05-07T06:30:13;4.77;;;3.40;;
434;SDS011;204;48.942;9.256;2023-05-07T06:32:40;3.77;;;3.57;;
434;SDS011;204;48.942;9.256;2023-05-07T06:35:06;3.30;;;3.10;;
434;SDS011;204;48.942;9.256;2023-05-07T06:37:31;3.37;;;3.20;;
434;SDS011;204;48.942;9.256;2023-05-07T06:39:57;4.33;;;3.30;;
434;SDS011;204;48.942;9.256;2023-05-07T06:42:23;3.83;;;3.63;;
434;SDS011;204;48.942;9.256;2023-05-07T06:44:48;3.83;;;3.63;;
434;SDS011;204;48.942;9.256;2023-05-07T06:47:14;3.70;;;3.50;;
434;SDS011;204;48.942;9.256;2023-05-07T06:49:39;3.20;;;3.00;;
434;SDS011;204;48.942;9.256;2023-05-07T06:52:05;3.50;;;3.30;;
434;SDS011;204;48.942;9.256;2023-05-07T06:54:30;4.70;;;3.07;;
434;SDS011;204;48.942;9.256;2023-05-07T06:56:56;3.23;;;3.07;;
434;SDS011;204;48.942;9.256;2023-05-07T06:59:21;2.90;;;2.70;;
434;SDS011;204;48.942;9.256;2023-05-07T07:01:48;2.30;;;2.10;;
434;SDS011;204;48.942;9.256;2023-05-07T07:04:14;1.93;;;1.83;;
434;SDS011;204;48.942;9.256;2023-05-07T07:06:39;2.20;;;2.00;;
434;SDS011;204;48.942;9.256;2023-05-07T07:09:05;5.70;;;2.37;;
434;SDS011;204;48.942;9.256;2023-05-07T07:11:30;2.60;;;2.10;;
434;SDS011;204;48.942;9.256;2023-05-07T07:13:56;3.17;;;2.00;;
434;SDS011;204;48.942;9.256;2023-05-07T07:16:21;2.20;;;1.67;;
434;SDS011;204;48.942;9.256;2023-05-07T07:18:47;1.97;;;1.90;;
434;SDS011;204;48.942;9.256;2023-05-07T07:21:13;2.27;;;1.70;;
434;SDS011;204;48.942;9.256;2023-05-07T07:23:38;1.90;;;1.80;;
434;SDS011;204;48.942;9.256;2023-05-07T07:26:04;1.87;;;1.80;;
434;SDS011;204;48.942;9.256;2023-05-07T07:28:30;2.33;;;1.83;;
434;SDS011;204;48.942;9.256;2023-05-07T07:30:56;2.63;;;2.17;;
434;SDS011;204;48.942;9.256;2023-05-07T07:33:22;3.40;;;2.23;;
434;SDS011;204;48.942;9.256;2023-05-07T07:35:47;1.97;;;1.90;;
434;SDS011;204;48.942;9.256;2023-05-07T07:38:13;2.20;;;2.00;;
434;SDS011;204;48.942;9.256;2023-05-07T07:40:38;2.23;;;2.03;;
434;SDS011;204;48.942;9.256;2023-05-07T07:43:04;2.60;;;2.40;;
434;SDS011;204;48.942;9.256;2023-05-07T07:45:31;2.33;;;1.93;;
434;SDS011;204;48.942;9.256;2023-05-07T07:47:56;2.83;;;2.63;;
434;SDS011;204;48.942;9.256;2023-05-07T07:50:22;2.40;;;2.20;;
434;SDS011;204;48.942;9.256;2023-05-07T07:52:48;2.33;;;2.13;;
434;SDS011;204;48.942;9.256;2023-05-07T07:55:13;4.83;;;2.00;;
434;SDS011;204;48.942;9.256;2023-05-07T07:57:42;4.43;;;1.90;;
434;SDS011;204;48.942;9.256;2023-05-07T08:00:08;3.90;;;2.63;;
434;SDS011;204;48.942;9.256;2023-05-07T08:02:34;4.00;;;2.10;;
434;SDS011;204;48.942;9.256;2023-05-07T08:05:00;3.27;;;1.83;;
434;SDS011;204;48.942;9.256;2023-05-07T08:07:25;2.90;;;2.70;;
434;SDS011;204;48.942;9.256;2023-05-07T08:09:51;2.20;;;2.00;;
434;SDS011;204;48.942;9.256;2023-05-07T08:12:17;2.50;;;2.30;;
434;SDS011;204;48.942;9.256;2023-05-07T08:14:43;3.63;;;2.00;;
434;SDS011;204;48.942;9.256;2023-05-07T08:17:08;2.70;;;2.20;;
434;SDS011;204;48.942;9.256;2023-05-07T08:19:35;3.53;;;2.20;;
434;SDS011;204;48.942;9.256;2023-05-07T08:22:01;2.57;;;2.40;;
434;SDS011;204;48.942;9.256;2023-05-07T08:24:28;3.60;;;2.47;;
434;SDS011;204;48.942;9.256;2023-05-07T08:26:53;3.83;;;2.43;;
434;SDS011;204;48.942;9.256;2023-05-07T08:29:19;2.50;;;2.30;;
434;SDS011;204;48.942;9.256;2023-05-07T08:31:44;2.67;;;2.47;;
434;SDS011;204;48.942;9.256;2023-05-07T08:34:10;4.10;;;2.50;;
434;SDS011;204;48.942;9.256;2023-05-07T08:36:35;3.43;;;3.23;;
434;SDS011;204;48.942;9.256;2023-05-07T08:39:01;3.00;;;2.80;;
434;SDS011;204;48.942;9.256;2023-05-07T08:41:27;3.17;;;2.80;;
434;SDS011;204;48.942;9.256;2023-05-07T08:43:53;3.20;;;2.30;;
434;SDS011;204;48.942;9.256;2023-05-07T08:46:22;2.63;;;2.30;;
434;SDS011;204;48.942;9.256;2023-05-07T08:48:50;2.47;;;2.20;;
434;SDS011;204;48.942;9.256;2023-05-07T08:51:18;2.50;;;2.30;;
434;SDS011;204;48.942;9.256;2023-05-07T08:53:45;3.10;;;2.37;;
434;SDS011;204;48.942;9.256;2023-05-07T08:56:13;2.77;;;2.20;;
434;SDS011;204;48.942;9.256;2023-05-07T08:58:40;2.27;;;2.07;;
434;SDS011;204;48.942;9.256;2023-05-07T09:01:09;4.43;;;2.20;;
434;SDS011;204;48.942;9.256;2023-05-07T09:03:38;2.93;;;2.27;;
434;SDS011;204;48.942;9.256;2023-05-07T09:06:04;4.13;;;2.50;;
434;SDS011;204;48.942;9.256;2023-05-07T09:08:31;2.50;;;2.33;;
434;SDS011;204;48.942;9.256;2023-05-07T09:10:58;3.00;;;1.93;;
434;SDS011;204;48.942;9.256;2023-05-07T09:13:24;2.53;;;2.30;;
434;SDS011;204;48.942;9.256;2023-05-07T09:15:49;2.80;;;2.60;;
434;SDS011;204;48.942;9.256;2023-05-07T09:18:15;3.10;;;2.07;;
434;SDS011;204;48.942;9.256;2023-05-07T09:20:41;2.73;;;1.90;;
434;SDS011;204;48.942;9.256;2023-05-07T09:23:07;4.50;;;2.23;;
434;SDS011;204;48.942;9.256;2023-05-07T09:25:33;2.33;;;2.17;;
434;SDS011;204;48.942;9.256;2023-05-07T09:28:00;4.43;;;2.70;;
434;SDS011;204;48.942;9.256;2023-05-07T09:30:30;2.20;;;1.83;;
434;SDS011;204;48.942;9.256;2023-05-07T09:32:57;2.30;;;2.10;;
434;SDS011;204;48.942;9.256;2023-05-07T09:35:24;2.67;;;2.47;;
434;SDS011;204;48.942;9.256;2023-05-07T09:37:52;3.67;;;2.80;;
434;SDS011;204;48.942;9.256;2023-05-07T09:40:23;3.37;;;2.10;;
434;SDS011;204;48.942;9.256;2023-05-07T09:42:50;5.10;;;2.50;;
434;SDS011;204;48.942;9.256;2023-05-07T09:45:16;2.93;;;2.53;;
434;SDS011;204;48.942;9.256;2023-05-07T09:47:51;2.57;;;2.37;;
434;SDS011;204;48.942;9.256;2023-05-07T09:50:26;3.73;;;2.40;;
434;SDS011;204;48.942;9.256;2023-05-07T09:52:54;2.80;;;2.60;;
434;SDS011;204;48.942;9.256;2023-05-07T09:55:20;4.10;;;2.60;;
434;SDS011;204;48.942;9.256;2023-05-07T09:57:48;2.83;;;2.50;;
434;SDS011;204;48.942;9.256;2023-05-07T10:00:15;2.90;;;2.03;;
434;SDS011;204;48.942;9.256;2023-05-07T10:02:44;2.97;;;2.80;;
434;SDS011;204;48.942;9.256;2023-05-07T10:05:14;3.03;;;2.17;;
434;SDS011;204;48.942;9.256;2023-05-07T10:07:40;3.20;;;2.60;;
434;SDS011;204;48.942;9.256;2023-05-07T10:10:06;2.70;;;2.23;;
434;SDS011;204;48.942;9.256;2023-05-07T10:12:32;3.07;;;2.83;;
434;SDS011;204;48.942;9.256;2023-05-07T10:15:04;1.90;;;1.90;;
434;SDS011;204;48.942;9.256;2023-05-07T10:17:31;4.03;;;2.60;;
434;SDS011;204;48.942;9.256;2023-05-07T10:19:58;3.47;;;2.30;;
434;SDS011;204;48.942;9.256;2023-05-07T10:22:23;2.60;;;1.70;;
434;SDS011;204;48.942;9.256;2023-05-07T10:24:52;2.37;;;2.17;;
434;SDS011;204;48.942;9.256;2023-05-07T10:27:21;2.67;;;2.50;;
434;SDS011;204;48.942;9.256;2023-05-07T10:32:48;2.70;;;2.33;;
434;SDS011;204;48.942;9.256;2023-05-07T10:35:17;1.87;;;1.83;;
434;SDS011;204;48.942;9.256;2023-05-07T10:37:46;2.40;;;2.20;;
434;SDS011;204;48.942;9.256;2023-05-07T10:40:13;2.00;;;1.90;;
434;SDS011;204;48.942;9.256;2023-05-07T10:42:38;3.40;;;1.90;;
434;SDS011;204;48.942;9.256;2023-05-07T10:45:17;6.70;;;2.40;;
434;SDS011;204;48.942;9.256;2023-05-07T10:50:35;2.30;;;2.10;;
434;SDS011;204;48.942;9.256;2023-05-07T10:53:19;1.50;;;1.40;;
434;SDS011;204;48.942;9.256;2023-05-07T10:55:50;2.13;;;2.00;;
434;SDS011;204;48.942;9.256;2023-05-07T11:00:54;2.83;;;1.80;;
434;SDS011;204;48.942;9.256;2023-05-07T11:03:25;1.80;;;1.70;;
434;SDS011;204;48.942;9.256;2023-05-07T11:14:09;2.50;;;1.90;;
434;SDS011;204;48.942;9.256;2023-05-07T11:16:35;2.23;;;2.03;;
434;SDS011;204;48.942;9.256;2023-05-07T11:19:03;4.03;;;1.90;;
434;SDS011;204;48.942;9.256;2023-05-07T11:24:02;1.40;;;1.30;;
434;SDS011;204;48.942;9.256;2023-05-07T11:26:30;2.37;;;2.10;;
434;SDS011;204;48.942;9.256;2023-05-07T11:29:10;2.37;;;2.17;;
434;SDS011;204;48.942;9.256;2023-05-07T11:31:37;2.73;;;2.27;;
434;SDS011;204;48.942;9.256;2023-05-07T11:34:03;2.20;;;2.00;;
434;SDS011;204;48.942;9.256;2023-05-07T11:36:30;2.13;;;1.97;;
434;SDS011;204;48.942;9.256;2023-05-07T11:38:57;2.00;;;1.90;;
434;SDS011;204;48.942;9.256;2023-05-07T11:41:23;4.20;;;2.10;;
434;SDS011;204;48.942;9.256;2023-05-07T11:43:59;1.70;;;1.60;;
434;SDS011;204;48.942;9.256;2023-05-07T11:46:26;3.53;;;1.80;;
434;SDS011;204;48.942;9.256;2023-05-07T11:48:52;2.83;;;1.83;;
434;SDS011;204;48.942;9.256;2023-05-07T11:51:18;1.53;;;1.40;;
434;SDS011;204;48.942;9.256;2023-05-07T11:53:45;9.07;;;2.57;;
434;SDS011;204;48.942;9.256;2023-05-07T11:56:12;1.93;;;1.90;;
434;SDS011;204;48.942;9.256;2023-05-07T11:58:39;2.57;;;2.30;;
434;SDS011;204;48.942;9.256;2023-05-07T12:01:07;1.57;;;1.50;;
434;SDS011;204;48.942;9.256;2023-05-07T12:03:36;1.70;;;1.60;;
434;SDS011;204;48.942;9.256;2023-05-07T12:06:07;2.20;;;2.00;;
434;SDS011;204;48.942;9.256;2023-05-07T12:08:35;2.90;;;1.90;;
434;SDS011;204;48.942;9.256;2023-05-07T12:11:02;2.37;;;2.20;;
434;SDS011;204;48.942;9.256;2023-05-07T12:13:28;1.70;;;1.57;;
434;SDS011;204;48.942;9.256;2023-05-07T12:15:54;3.13;;;1.87;;
434;SDS011;204;48.942;9.256;2023-05-07T12:18:21;1.80;;;1.70;;
434;SDS011;204;48.942;9.256;2023-05-07T12:20:48;2.77;;;2.07;;
434;SDS011;204;48.942;9.256;2023-05-07T12:23:14;2.00;;;1.90;;
434;SDS011;204;48.942;9.256;2023-05-07T12:25:40;2.97;;;1.50;;
434;SDS011;204;48.942;9.256;2023-05-07T12:28:13;2.27;;;2.07;;
434;SDS011;204;48.942;9.256;2023-05-07T12:30:44;2.13;;;1.97;;
434;SDS011;204;48.942;9.256;2023-05-07T12:33:10;2.80;;;1.77;;
434;SDS011;204;48.942;9.256;2023-05-07T12:35:38;2.27;;;1.83;;
434;SDS011;204;48.942;9.256;2023-05-07T12:38:08;2.27;;;2.07;;
434;SDS011;204;48.942;9.256;2023-05-07T12:40:36;1.77;;;1.67;;
434;SDS011;204;48.942;9.256;2023-05-07T12:43:02;4.47;;;1.87;;
434;SDS011;204;48.942;9.256;2023-05-07T12:45:28;2.03;;;1.90;;
434;SDS011;204;48.942;9.256;2023-05-07T12:47:54;2.00;;;1.67;;
434;SDS011;204;48.942;9.256;2023-05-07T12:50:19;2.33;;;2.13;;
434;SDS011;204;48.942;9.256;2023-05-07T12:52:46;2.13;;;1.83;;
434;SDS011;204;48.942;9.256;2023-05-07T12:55:16;1.57;;;1.30;;
434;SDS011;204;48.942;9.256;2023-05-07T12:57:42;3.10;;;1.73;;
434;SDS011;204;48.942;9.256;2023-05-07T13:00:11;1.87;;;1.77;;
434;SDS011;204;48.942;9.256;2023-05-07T13:02:37;2.17;;;2.00;;
434;SDS011;204;48.942;9.256;2023-05-07T13:05:04;7.80;;;1.70;;
434;SDS011;204;48.942;9.256;2023-05-07T13:07:30;1.70;;;1.40;;
434;SDS011;204;48.942;9.256;2023-05-07T13:09:55;2.50;;;2.00;;
434;SDS011;204;48.942;9.256;2023-05-07T13:12:21;5.20;;;1.60;;
434;SDS011;204;48.942;9.256;2023-05-07T13:14:46;1.43;;;1.33;;
434;SDS011;204;48.942;9.256;2023-05-07T13:17:12;1.60;;;1.50;;
434;SDS011;204;48.942;9.256;2023-05-07T13:19:38;1.73;;;1.63;;
434;SDS011;204;48.942;9.256;2023-05-07T13:22:03;3.03;;;1.43;;
434;SDS011;204;48.942;9.256;2023-05-07T13:24:29;5.60;;;2.00;;
434;SDS011;204;48.942;9.256;2023-05-07T13:26:55;2.40;;;2.27;;
434;SDS011;204;48.942;9.256;2023-05-07T13:29:20;2.70;;;2.50;;
434;SDS011;204;48.942;9.256;2023-05-07T13:31:53;1.93;;;1.83;;
434;SDS011;204;48.942;9.256;2023-05-07T13:34:19;3.87;;;2.57;;
434;SDS011;204;48.942;9.256;2023-05-07T13:36:45;2.80;;;1.90;;
434;SDS011;204;48.942;9.256;2023-05-07T13:39:13;2.23;;;2.03;;
434;SDS011;204;48.942;9.256;2023-05-07T13:41:39;2.73;;;2.17;;
434;SDS011;204;48.942;9.256;2023-05-07T13:44:07;2.23;;;2.07;;
434;SDS011;204;48.942;9.256;2023-05-07T13:46:33;2.37;;;1.30;;
434;SDS011;204;48.942;9.256;2023-05-07T13:48:58;4.23;;;2.20;;
434;SDS011;204;48.942;9.256;2023-05-07T13:51:24;2.07;;;1.50;;
434;SDS011;204;48.942;9.256;2023-05-07T13:53:50;2.27;;;1.40;;
434;SDS011;204;48.942;9.256;2023-05-07T13:56:17;2.00;;;1.27;;
434;SDS011;204;48.942;9.256;2023-05-07T13:58:42;2.00;;;1.17;;
434;SDS011;204;48.942;9.256;2023-05-07T14:01:08;2.40;;;1.60;;
434;SDS011;204;48.942;9.256;2023-05-07T14:03:34;1.10;;;1.00;;
434;SDS011;204;48.942;9.256;2023-05-07T14:06:02;4.90;;;2.63;;
434;SDS011;204;48.942;9.256;2023-05-07T14:08:28;4.40;;;1.93;;
434;SDS011;204;48.942;9.256;2023-05-07T14:10:54;6.07;;;3.60;;
434;SDS011;204;48.942;9.256;2023-05-07T14:13:19;3.10;;;2.20;;
434;SDS011;204;48.942;9.256;2023-05-07T14:15:45;1.93;;;1.33;;
434;SDS011;204;48.942;9.256;2023-05-07T14:18:12;3.33;;;2.23;;
434;SDS011;204;48.942;9.256;2023-05-07T14:20:37;1.70;;;1.60;;
434;SDS011;204;48.942;9.256;2023-05-07T14:23:03;2.50;;;2.30;;
434;SDS011;204;48.942;9.256;2023-05-07T14:25:29;1.80;;;1.40;;
434;SDS011;204;48.942;9.256;2023-05-07T14:27:54;1.97;;;1.33;;
434;SDS011;204;48.942;9.256;2023-05-07T14:30:23;1.40;;;1.37;;
434;SDS011;204;48.942;9.256;2023-05-07T14:32:49;2.30;;;1.37;;
434;SDS011;204;48.942;9.256;2023-05-07T14:35:15;2.83;;;2.70;;
434;SDS011;204;48.942;9.256;2023-05-07T14:37:41;2.80;;;1.80;;
434;SDS011;204;48.942;9.256;2023-05-07T14:40:07;2.63;;;1.43;;
434;SDS011;204;48.942;9.256;2023-05-07T14:42:33;4.50;;;3.97;;
434;SDS011;204;48.942;9.256;2023-05-07T14:44:59;5.97;;;4.87;;
434;SDS011;204;48.942;9.256;2023-05-07T14:47:24;11.10;;;9.53;;
434;SDS011;204;48.942;9.256;2023-05-07T14:49:50;1.80;;;1.70;;
434;SDS011;204;48.942;9.256;2023-05-07T14:52:16;3.23;;;1.93;;
434;SDS011;204;48.942;9.256;2023-05-07T14:54:42;3.70;;;2.20;;
434;SDS011;204;48.942;9.256;2023-05-07T14:57:07;4.17;;;2.30;;
434;SDS011;204;48.942;9.256;2023-05-07T14:59:34;2.83;;;2.60;;
434;SDS011;204;48.942;9.256;2023-05-07T15:02:00;4.73;;;2.30;;
434;SDS011;204;48.942;9.256;2023-05-07T15:04:26;8.03;;;2.67;;
434;SDS011;204;48.942;9.256;2023-05-07T15:06:52;4.53;;;2.13;;
434;SDS011;204;48.942;9.256;2023-05-07T15:09:21;3.03;;;2.17;;
434;SDS011;204;48.942;9.256;2023-05-07T15:11:46;2.67;;;2.00;;
434;SDS011;204;48.942;9.256;2023-05-07T15:14:12;2.57;;;2.20;;
434;SDS011;204;48.942;9.256;2023-05-07T15:16:37;1.73;;;1.63;;
434;SDS011;204;48.942;9.256;2023-05-07T15:19:03;2.90;;;2.10;;
434;SDS011;204;48.942;9.256;2023-05-07T15:21:29;6.10;;;2.50;;
434;SDS011;204;48.942;9.256;2023-05-07T15:23:57;2.23;;;1.90;;
434;SDS011;204;48.942;9.256;2023-05-07T15:26:23;2.27;;;2.07;;
434;SDS011;204;48.942;9.256;2023-05-07T15:28:48;3.80;;;2.30;;
434;SDS011;204;48.942;9.256;2023-05-07T15:31:15;3.13;;;2.30;;
434;SDS011;204;48.942;9.256;2023-05-07T15:33:41;4.00;;;2.67;;
434;SDS011;204;48.942;9.256;2023-05-07T15:36:06;3.30;;;2.50;;
434;SDS011;204;48.942;9.256;2023-05-07T15:38:33;3.80;;;3.60;;
434;SDS011;204;48.942;9.256;2023-05-07T15:40:59;3.63;;;3.17;;
434;SDS011;204;48.942;9.256;2023-05-07T15:43:25;3.27;;;2.97;;
434;SDS011;204;48.942;9.256;2023-05-07T15:45:50;4.60;;;3.27;;
434;SDS011;204;48.942;9.256;2023-05-07T15:48:16;4.20;;;2.57;;
434;SDS011;204;48.942;9.256;2023-05-07T15:50:41;4.67;;;3.13;;
434;SDS011;204;48.942;9.256;2023-05-07T15:53:07;3.70;;;3.50;;
434;SDS011;204;48.942;9.256;2023-05-07T15:55:34;6.27;;;5.93;;
434;SDS011;204;48.942;9.256;2023-05-07T15:57:59;4.30;;;2.77;;